Mount Rainier National Park, WA

11:15 AM PDT on August 29, 2014 (GMT -0700)
Gray Army Air Field | Change Station
CLOSE
Current Station
Airport
Location: Fort Lewis,
Elevation: 302 ft
Nearby Weather Stations

Elev 302 ft 47.08 °N, 122.58 °W | Updated 17 minutes ago

Mostly Cloudy
Mostly Cloudy
68 °F
Feels Like 68 °F
N
6
Wind Variable Wind from SW

Today
High -- | Low -- °F
--% Chance of Precip.
Yesterday
High -- | Low -- °F
Precip. -- in
6:23 AM 7:52 PM
Waxing Crescent, 15% visible
Pressure 30.01 in
Visibility 10.0 miles
Clouds Few 15000 ft
Mostly Cloudy 20000 ft
Dew Point 51 °F
Humidity 53%
Rainfall 0.00 in
Snow Depth 0 in
UV 3 out of 12
Pollen 2.40 out of 12
Air Quality Not available.
Flu Activity Not available.
METAR KGRF 291758Z AUTO 23005KT 10SM FEW150 BKN200 20/10 A3000 RMK AO2 SLP162 T02020104 10202 20133 53002 PWINO $

More Conditions Fewer Conditions

Pressure 30.01 in
Visibility 10.0 miles
Clouds Few 15000 ft
Mostly Cloudy 20000 ft
Dew Point 51 °F
Humidity 53%
Rainfall 0.00 in
Snow Depth 0 in
UV 3 out of 12
Pollen 2.40 out of 12
Air Quality Not available.
Flu Activity Not available.
METAR KGRF 291758Z AUTO 23005KT 10SM FEW150 BKN200 20/10 A3000 RMK AO2 SLP162 T02020104 10202 20133 53002 PWINO $

More Conditions Fewer Conditions

10-Day Weather Forecast

Almanac

Astronomy

Aug. 29, 2014 Rise Set
Actual Time 6:23 AM PDT 7:52 PM PDT
Civil Twilight 5:51 AM PDT 8:23 PM PDT
Nautical Twilight 5:13 AM PDT 9:01 PM PDT
Astronomical Twilight 4:31 AM PDT 9:42 PM PDT
Moon 10:34 AM PDT 9:34 PM PDT
Length of Visible Light 14h 32m
Length of Day
13h 28m
Tomorrow will be 3m 11s shorter.
Waxing Crescent, 15% of the Moon is Illuminated
Today
Waxing Crescent
Sep 2
First Quarter
Sep 8
Full
Sep 15
Last Quarter
Sep 24
New

Today's Extremes

State Highs State Lows

Community

WunderPhotos

Upload Photos

1,748,309 photos uploaded!

Nearby

Snow Depth

Station Depth Elevation
Burnt Mountain 0 in 4200 ft
Pigtail Peak 0 in 5900 ft
White Pass E.S. 0 in 4500 ft
Green Lake 0 in 6000 ft
Lone Pine 0 in 3800 ft

Earthquake Activity

City Distance Mag. Time & Date
No recent earthquake activity has been reported nearby.
Minimum magnitude displayed is 2.5.

Coastal Water Temperatures

Place Temperature
No Stations Reporting

Nearby Weather Stations